createdAt,value
2019-05-30T00:00:51.175Z,3.83
2019-05-30T00:03:18.757Z,3.30
2019-05-30T00:05:46.263Z,3.30
2019-05-30T00:08:13.924Z,3.70
2019-05-30T00:10:41.827Z,4.00
2019-05-30T00:13:09.604Z,3.60
2019-05-30T00:15:37.255Z,4.07
2019-05-30T00:18:05.032Z,3.87
2019-05-30T00:20:32.836Z,3.33
2019-05-30T00:23:01.018Z,3.83
2019-05-30T00:25:28.609Z,4.10
2019-05-30T00:27:57.057Z,3.20
2019-05-30T00:30:25.066Z,4.20
2019-05-30T00:32:52.879Z,3.90
2019-05-30T00:35:20.572Z,3.90
2019-05-30T00:37:48.351Z,3.80
2019-05-30T00:40:16.232Z,4.33
2019-05-30T00:42:43.994Z,3.53
2019-05-30T00:45:20.795Z,4.17
2019-05-30T00:47:41.360Z,3.50
2019-05-30T00:50:09.418Z,4.10
2019-05-30T00:52:37.507Z,4.37
2019-05-30T00:55:06.993Z,3.73
2019-05-30T00:57:35.036Z,3.33
2019-05-30T01:00:03.082Z,4.17
2019-05-30T01:02:30.804Z,3.70
2019-05-30T01:04:58.900Z,4.20
2019-05-30T01:07:26.654Z,7.27
2019-05-30T01:09:54.732Z,4.50
2019-05-30T01:12:22.448Z,4.50
2019-05-30T01:14:50.409Z,5.33
2019-05-30T01:17:18.319Z,5.33
2019-05-30T01:19:46.229Z,5.17
2019-05-30T01:22:14.038Z,4.50
2019-05-30T01:24:41.846Z,4.73
2019-05-30T01:27:09.580Z,4.43
2019-05-30T01:29:37.642Z,4.97
2019-05-30T01:32:23.834Z,4.73
2019-05-30T01:34:51.799Z,4.63
2019-05-30T01:37:19.637Z,6.57
2019-05-30T01:39:47.328Z,5.50
2019-05-30T01:42:14.899Z,5.20
2019-05-30T01:44:42.671Z,4.80
2019-05-30T01:47:10.191Z,5.40
2019-05-30T01:49:37.889Z,5.60
2019-05-30T01:52:06.608Z,4.57
2019-05-30T01:54:34.919Z,5.03
2019-05-30T01:57:02.947Z,5.00
2019-05-30T01:59:30.670Z,5.60
2019-05-30T02:01:58.888Z,5.23
2019-05-30T02:04:26.869Z,5.13
2019-05-30T02:06:54.724Z,5.27
2019-05-30T02:09:22.557Z,4.13
2019-05-30T02:11:50.447Z,5.70
2019-05-30T02:14:18.314Z,5.63
2019-05-30T02:16:45.846Z,4.47
2019-05-30T02:19:13.928Z,5.07
2019-05-30T02:21:41.900Z,5.40
2019-05-30T02:24:12.010Z,6.17
2019-05-30T02:26:39.676Z,5.53
2019-05-30T02:29:08.337Z,5.47
2019-05-30T02:31:39.442Z,4.77
2019-05-30T02:34:07.485Z,5.33
2019-05-30T02:36:35.501Z,5.87
2019-05-30T02:39:04.787Z,4.57
2019-05-30T02:41:32.896Z,8.77
2019-05-30T02:44:01.179Z,5.47
2019-05-30T02:46:29.077Z,5.80
2019-05-30T02:48:59.265Z,4.90
2019-05-30T02:51:26.398Z,5.57
2019-05-30T02:53:54.394Z,7.90
2019-05-30T02:56:22.229Z,4.90
2019-05-30T02:58:49.837Z,5.23
2019-05-30T03:01:17.939Z,4.90
2019-05-30T03:03:45.840Z,5.30
2019-05-30T03:06:14.074Z,5.50
2019-05-30T03:08:42.305Z,4.77
2019-05-30T03:11:12.898Z,4.90
2019-05-30T03:13:39.768Z,5.70
2019-05-30T03:16:08.959Z,5.00
2019-05-30T03:18:37.035Z,6.77
2019-05-30T03:21:06.378Z,5.67
2019-05-30T03:23:34.708Z,5.93
2019-05-30T03:26:04.585Z,8.13
2019-05-30T03:28:32.096Z,5.63
2019-05-30T03:31:00.239Z,5.40
2019-05-30T03:33:39.253Z,5.00
2019-05-30T03:35:57.741Z,8.07
2019-05-30T03:38:25.729Z,5.43
2019-05-30T03:40:53.546Z,4.97
2019-05-30T03:43:21.452Z,5.87
2019-05-30T03:45:49.262Z,4.93
2019-05-30T03:48:18.386Z,6.83
2019-05-30T03:50:47.789Z,6.10
2019-05-30T03:53:16.295Z,8.03
2019-05-30T03:55:46.194Z,8.57
2019-05-30T03:58:33.742Z,5.73
2019-05-30T04:01:06.031Z,6.60
2019-05-30T04:03:44.725Z,6.60
2019-05-30T04:06:14.550Z,5.10
2019-05-30T04:08:44.810Z,7.07
2019-05-30T04:11:16.598Z,5.37
2019-05-30T04:13:48.346Z,6.47
2019-05-30T04:16:16.251Z,6.47
2019-05-30T04:18:44.228Z,6.27
2019-05-30T04:21:14.129Z,5.80
2019-05-30T04:23:41.674Z,5.10
2019-05-30T04:26:09.669Z,6.50
2019-05-30T04:28:37.886Z,5.53
2019-05-30T04:31:05.673Z,5.87
2019-05-30T04:33:34.042Z,6.20
2019-05-30T04:36:01.845Z,6.87
2019-05-30T04:38:30.311Z,6.07
2019-05-30T04:40:57.992Z,5.60
2019-05-30T04:43:26.232Z,5.33
2019-05-30T04:45:53.811Z,5.23
2019-05-30T04:48:21.774Z,5.57
2019-05-30T04:50:49.525Z,5.53
2019-05-30T04:53:18.484Z,5.47
2019-05-30T04:55:46.384Z,6.13
2019-05-30T04:58:15.380Z,6.40
2019-05-30T05:00:43.385Z,8.67
2019-05-30T05:03:11.375Z,6.13
2019-05-30T05:05:39.608Z,6.53
2019-05-30T05:08:07.349Z,6.90
2019-05-30T05:10:35.163Z,7.57
2019-05-30T05:13:02.957Z,6.80
2019-05-30T05:15:30.538Z,7.27
2019-05-30T05:17:58.409Z,7.40
2019-05-30T05:20:26.486Z,7.10
2019-05-30T05:22:54.368Z,7.30
2019-05-30T05:25:22.137Z,7.43
2019-05-30T05:27:49.945Z,6.67
2019-05-30T05:30:18.027Z,6.80
2019-05-30T05:32:45.914Z,7.13
2019-05-30T05:35:14.713Z,8.17
2019-05-30T05:37:42.895Z,6.20
2019-05-30T05:40:10.934Z,6.43
2019-05-30T05:42:38.829Z,6.70
2019-05-30T05:45:06.943Z,7.83
2019-05-30T05:47:34.838Z,7.93
2019-05-30T05:50:02.720Z,7.27
2019-05-30T05:52:30.847Z,7.80
2019-05-30T05:54:58.755Z,7.67
2019-05-30T05:57:26.881Z,7.60
2019-05-30T05:59:54.671Z,8.27
2019-05-30T06:02:23.274Z,10.67
2019-05-30T06:04:51.149Z,7.67
2019-05-30T06:07:20.224Z,8.00
2019-05-30T06:09:48.305Z,8.77
2019-05-30T06:12:17.479Z,9.30
2019-05-30T06:14:45.679Z,7.90
2019-05-30T06:17:13.758Z,8.23
2019-05-30T06:19:46.265Z,9.57
2019-05-30T06:22:10.819Z,8.47
2019-05-30T06:24:39.004Z,7.97
2019-05-30T06:27:07.264Z,9.63
2019-05-30T06:29:35.127Z,8.00
2019-05-30T06:32:02.638Z,10.90
2019-05-30T06:34:38.934Z,12.77
2019-05-30T06:36:59.748Z,8.80
2019-05-30T06:39:27.670Z,8.80
2019-05-30T06:41:55.685Z,8.70
2019-05-30T06:44:23.976Z,9.03
2019-05-30T06:46:51.809Z,9.47
2019-05-30T06:49:20.578Z,8.47
2019-05-30T06:51:48.788Z,11.03
2019-05-30T06:54:16.850Z,9.10
2019-05-30T06:56:45.133Z,9.10
2019-05-30T06:59:12.882Z,8.30
2019-05-30T07:01:40.791Z,10.00
2019-05-30T07:04:10.388Z,10.23
2019-05-30T07:06:38.801Z,8.73
2019-05-30T07:09:08.163Z,8.00
2019-05-30T07:11:36.222Z,8.90
2019-05-30T07:14:04.299Z,11.47
2019-05-30T07:16:32.160Z,10.20
2019-05-30T07:19:00.846Z,9.93
2019-05-30T07:21:29.702Z,9.47
2019-05-30T07:23:59.844Z,15.27
2019-05-30T07:26:27.761Z,11.30
2019-05-30T07:28:55.483Z,11.77
2019-05-30T07:31:24.042Z,10.70
2019-05-30T07:33:52.138Z,10.00
2019-05-30T07:36:20.428Z,10.80
2019-05-30T07:38:48.262Z,10.33
2019-05-30T07:41:16.718Z,12.73
2019-05-30T07:43:45.042Z,9.90
2019-05-30T07:46:12.687Z,13.83
2019-05-30T07:48:40.499Z,10.03
2019-05-30T07:51:08.356Z,12.10
2019-05-30T07:53:36.298Z,8.17
2019-05-30T07:56:04.679Z,7.77
2019-05-30T07:58:33.367Z,8.03
2019-05-30T08:01:01.222Z,7.37
2019-05-30T08:03:28.878Z,6.80
2019-05-30T08:05:56.661Z,6.97
2019-05-30T08:08:24.322Z,8.63
2019-05-30T08:11:06.221Z,10.00
2019-05-30T08:13:21.908Z,7.70
2019-05-30T08:15:49.825Z,7.67
2019-05-30T08:18:17.783Z,7.77
2019-05-30T08:20:45.474Z,6.93
2019-05-30T08:23:13.765Z,8.83
2019-05-30T08:25:42.088Z,8.03
2019-05-30T08:28:10.726Z,6.53
2019-05-30T08:30:38.766Z,7.43
2019-05-30T08:33:06.661Z,7.90
2019-05-30T08:35:43.525Z,6.53
2019-05-30T08:38:04.020Z,7.30
2019-05-30T08:40:31.732Z,7.57
2019-05-30T08:42:59.771Z,8.73
2019-05-30T08:45:27.622Z,6.70
2019-05-30T08:47:55.302Z,7.33
2019-05-30T08:50:22.975Z,6.50
2019-05-30T08:52:51.165Z,6.80
2019-05-30T08:55:19.000Z,6.77
2019-05-30T08:57:46.559Z,6.97
2019-05-30T09:00:15.577Z,6.47
2019-05-30T09:02:43.487Z,6.10
2019-05-30T09:05:12.354Z,6.37
2019-05-30T09:07:40.441Z,6.27
2019-05-30T09:10:09.914Z,6.10
2019-05-30T09:12:38.606Z,10.90
2019-05-30T09:15:09.053Z,6.63
2019-05-30T09:17:38.728Z,6.40
2019-05-30T09:20:07.188Z,6.00
2019-05-30T09:22:35.173Z,8.57
2019-05-30T09:25:03.184Z,6.70
2019-05-30T09:27:31.393Z,6.67
2019-05-30T09:29:58.984Z,8.80
2019-05-30T09:32:26.730Z,6.13
2019-05-30T09:34:54.585Z,5.90
2019-05-30T09:37:22.243Z,5.80
2019-05-30T09:39:58.711Z,6.53
2019-05-30T09:42:34.705Z,6.43
2019-05-30T09:45:02.439Z,6.70
2019-05-30T09:47:30.013Z,6.53
2019-05-30T09:49:57.687Z,6.60
2019-05-30T09:52:25.420Z,5.93
2019-05-30T09:54:53.045Z,6.07
2019-05-30T09:57:20.603Z,6.17
2019-05-30T09:59:48.539Z,5.87
2019-05-30T10:02:16.679Z,6.50
2019-05-30T10:04:45.766Z,6.10
2019-05-30T10:07:13.438Z,6.57
2019-05-30T10:09:41.200Z,5.77
2019-05-30T10:12:08.838Z,5.93
2019-05-30T10:14:37.435Z,5.93
2019-05-30T10:17:04.857Z,6.13
2019-05-30T10:19:32.564Z,6.27
2019-05-30T10:22:00.517Z,6.00
2019-05-30T10:24:28.093Z,5.97
2019-05-30T10:26:55.745Z,5.73
2019-05-30T10:29:23.401Z,6.33
2019-05-30T10:31:50.836Z,6.17
2019-05-30T10:34:18.856Z,6.17
2019-05-30T10:36:48.765Z,5.87
2019-05-30T10:39:15.589Z,5.93
2019-05-30T10:41:43.356Z,6.07
2019-05-30T10:44:11.084Z,6.17
2019-05-30T10:46:42.343Z,5.83
2019-05-30T10:49:10.069Z,8.60
2019-05-30T10:51:38.007Z,9.37
2019-05-30T10:54:05.866Z,6.97
2019-05-30T10:56:33.516Z,7.37
2019-05-30T10:59:01.299Z,5.87
2019-05-30T11:01:29.141Z,5.50
2019-05-30T11:03:57.031Z,7.00
2019-05-30T11:06:26.142Z,6.07
2019-05-30T11:08:55.016Z,6.43
2019-05-30T11:11:24.836Z,6.63
2019-05-30T11:13:53.309Z,6.83
2019-05-30T11:16:20.960Z,6.37
2019-05-30T11:18:49.360Z,6.03
2019-05-30T11:21:17.911Z,6.00
2019-05-30T11:23:45.512Z,7.30
2019-05-30T11:26:13.236Z,13.33
2019-05-30T11:28:40.922Z,6.53
2019-05-30T11:31:08.565Z,6.03
2019-05-30T11:33:36.756Z,6.13
2019-05-30T11:36:04.623Z,6.17
2019-05-30T11:38:32.376Z,6.20
2019-05-30T11:41:00.021Z,6.97
2019-05-30T11:43:27.822Z,5.87
2019-05-30T11:45:55.968Z,6.00
2019-05-30T11:48:23.826Z,5.85
2019-05-30T11:50:52.077Z,6.00
2019-05-30T11:53:20.045Z,5.77
2019-05-30T11:55:47.655Z,6.13
2019-05-30T11:58:19.127Z,5.07
2019-05-30T12:00:45.131Z,5.83
2019-05-30T12:03:12.927Z,5.83
2019-05-30T12:05:40.928Z,5.63
2019-05-30T12:08:09.260Z,6.17
2019-05-30T12:10:37.186Z,6.33
2019-05-30T12:13:05.725Z,5.73
2019-05-30T12:15:33.731Z,6.40
2019-05-30T12:18:02.430Z,5.97
2019-05-30T12:20:30.263Z,6.13
2019-05-30T12:22:58.063Z,5.93
2019-05-30T12:25:26.356Z,5.97
2019-05-30T12:27:54.218Z,5.60
2019-05-30T12:30:22.402Z,6.57
2019-05-30T12:32:50.442Z,6.23
2019-05-30T12:35:18.721Z,6.00
2019-05-30T12:37:54.971Z,5.80
2019-05-30T12:40:17.153Z,5.93
2019-05-30T12:42:45.227Z,6.27
2019-05-30T12:45:13.821Z,6.20
2019-05-30T12:47:41.868Z,5.73
2019-05-30T12:50:11.163Z,6.13
2019-05-30T12:52:39.533Z,5.73
2019-05-30T12:55:08.273Z,5.70
2019-05-30T12:57:36.694Z,5.53
2019-05-30T13:00:17.812Z,6.90
2019-05-30T13:02:41.839Z,5.77
2019-05-30T13:05:10.270Z,5.87
2019-05-30T13:07:38.872Z,5.60
2019-05-30T13:10:07.641Z,5.47
2019-05-30T13:12:35.762Z,5.53
2019-05-30T13:15:05.861Z,5.70
2019-05-30T13:17:33.952Z,5.77
2019-05-30T13:20:03.372Z,5.83
2019-05-30T13:22:31.324Z,6.60
2019-05-30T13:24:59.702Z,6.37
2019-05-30T13:27:27.886Z,5.60
2019-05-30T13:29:55.976Z,5.73
2019-05-30T13:32:24.006Z,5.00
2019-05-30T13:34:52.304Z,5.77
2019-05-30T13:37:21.567Z,5.73
2019-05-30T13:39:49.909Z,6.13
2019-05-30T13:42:17.717Z,5.77
2019-05-30T13:44:45.298Z,5.57
2019-05-30T13:47:13.049Z,6.40
2019-05-30T13:49:40.699Z,5.70
2019-05-30T13:52:09.146Z,5.23
2019-05-30T13:54:36.896Z,6.00
2019-05-30T13:57:05.661Z,5.50
2019-05-30T13:59:33.498Z,5.10
2019-05-30T14:02:01.862Z,5.93
2019-05-30T14:04:29.827Z,5.30
2019-05-30T14:06:57.850Z,7.53
2019-05-30T14:09:25.705Z,5.90
2019-05-30T14:11:53.365Z,6.23
2019-05-30T14:14:21.235Z,6.23
2019-05-30T14:16:49.143Z,6.30
2019-05-30T14:19:16.747Z,5.93
2019-05-30T14:21:44.355Z,5.93
2019-05-30T14:24:11.947Z,6.07
2019-05-30T14:26:39.393Z,5.63
2019-05-30T14:29:07.705Z,5.97
2019-05-30T14:31:35.886Z,5.90
2019-05-30T14:34:04.167Z,6.83
2019-05-30T14:36:32.124Z,6.87
2019-05-30T14:38:59.679Z,6.57
2019-05-30T14:41:27.328Z,6.83
2019-05-30T14:43:54.995Z,5.97
2019-05-30T14:46:22.665Z,6.93
2019-05-30T14:48:50.153Z,6.07
2019-05-30T14:51:17.857Z,6.23
2019-05-30T14:53:45.402Z,5.73
2019-05-30T14:56:13.521Z,5.80
2019-05-30T14:58:41.864Z,6.27
2019-05-30T15:01:09.665Z,6.20
2019-05-30T15:03:37.546Z,5.70
2019-05-30T15:06:06.929Z,6.33
2019-05-30T15:08:34.453Z,6.43
2019-05-30T15:11:02.146Z,6.50
2019-05-30T15:13:29.953Z,6.77
2019-05-30T15:15:57.780Z,6.53
2019-05-30T15:18:25.339Z,5.77
2019-05-30T15:20:52.995Z,6.77
2019-05-30T15:23:20.422Z,6.00
2019-05-30T15:25:47.978Z,5.93
2019-05-30T15:28:16.199Z,6.37
2019-05-30T15:30:43.796Z,6.50
2019-05-30T15:33:12.564Z,6.13
2019-05-30T15:35:40.603Z,6.50
2019-05-30T15:38:08.751Z,6.33
2019-05-30T15:40:36.554Z,5.50
2019-05-30T15:43:04.405Z,6.83
2019-05-30T15:45:31.937Z,5.80
2019-05-30T15:47:59.493Z,5.90
2019-05-30T15:50:27.054Z,6.20
2019-05-30T15:52:54.765Z,8.33
2019-05-30T15:55:23.297Z,5.93
2019-05-30T15:57:51.488Z,6.47
2019-05-30T16:00:19.974Z,6.70
2019-05-30T16:02:47.810Z,7.23
2019-05-30T16:05:16.714Z,9.97
2019-05-30T16:07:44.703Z,7.10
2019-05-30T16:10:12.809Z,8.00
2019-05-30T16:12:40.622Z,7.77
2019-05-30T16:15:08.891Z,10.77
2019-05-30T16:17:36.437Z,7.77
2019-05-30T16:20:05.545Z,7.13
2019-05-30T16:22:33.008Z,6.70
2019-05-30T16:25:00.475Z,6.67
2019-05-30T16:27:31.058Z,10.93
2019-05-30T16:29:57.546Z,9.67
2019-05-30T16:32:26.167Z,7.67
2019-05-30T16:34:54.098Z,7.50
2019-05-30T16:37:22.254Z,8.93
2019-05-30T16:40:04.660Z,9.50
2019-05-30T16:42:20.088Z,6.80
2019-05-30T16:44:48.233Z,6.60
2019-05-30T16:47:16.546Z,6.90
2019-05-30T16:49:44.365Z,6.77
2019-05-30T16:52:12.850Z,8.00
2019-05-30T16:54:40.499Z,6.67
2019-05-30T16:57:08.155Z,7.37
2019-05-30T16:59:35.830Z,6.80
2019-05-30T17:02:03.881Z,7.27
2019-05-30T17:04:31.400Z,7.07
2019-05-30T17:06:58.899Z,7.20
2019-05-30T17:09:27.645Z,6.57
2019-05-30T17:11:55.332Z,6.43
2019-05-30T17:14:23.933Z,7.10
2019-05-30T17:16:51.746Z,6.87
2019-05-30T17:19:20.305Z,6.67
2019-05-30T17:21:53.159Z,6.80
2019-05-30T17:24:21.039Z,7.30
2019-05-30T17:26:51.935Z,7.03
2019-05-30T17:29:19.514Z,6.80
2019-05-30T17:31:47.719Z,7.77
2019-05-30T17:34:15.231Z,7.17
2019-05-30T17:36:42.746Z,7.17
2019-05-30T17:39:10.215Z,6.97
2019-05-30T17:41:37.713Z,7.33
2019-05-30T17:44:05.262Z,6.97
2019-05-30T17:46:32.869Z,6.90
2019-05-30T17:49:00.331Z,10.80
2019-05-30T17:51:28.229Z,7.53
2019-05-30T17:53:55.727Z,7.50
2019-05-30T17:56:23.985Z,7.10
2019-05-30T17:58:51.803Z,7.13
2019-05-30T18:01:20.221Z,7.73
2019-05-30T18:03:48.038Z,8.50
2019-05-30T18:06:15.522Z,7.97
2019-05-30T18:08:43.129Z,7.40
2019-05-30T18:11:10.607Z,7.47
2019-05-30T18:13:38.652Z,7.37
2019-05-30T18:16:06.207Z,8.67
2019-05-30T18:18:33.981Z,12.40
2019-05-30T18:21:01.656Z,8.30
2019-05-30T18:23:29.701Z,9.43
2019-05-30T18:25:57.684Z,8.93
2019-05-30T18:28:25.767Z,8.80
2019-05-30T18:30:53.386Z,9.43
2019-05-30T18:33:22.130Z,8.43
2019-05-30T18:35:49.751Z,9.17
2019-05-30T18:38:17.226Z,7.40
2019-05-30T18:40:44.772Z,8.67
2019-05-30T18:43:12.247Z,7.67
2019-05-30T18:45:43.452Z,7.53
2019-05-30T18:48:11.291Z,8.13
2019-05-30T18:50:39.004Z,7.97
2019-05-30T18:53:06.809Z,8.13
2019-05-30T18:55:34.761Z,8.00
2019-05-30T18:58:02.436Z,8.83
2019-05-30T19:00:31.222Z,8.33
2019-05-30T19:02:59.173Z,9.40
2019-05-30T19:05:26.758Z,9.20
2019-05-30T19:07:54.419Z,9.40
2019-05-30T19:10:22.380Z,9.13
2019-05-30T19:12:50.332Z,8.40
2019-05-30T19:15:18.428Z,9.10
2019-05-30T19:17:46.409Z,9.77
2019-05-30T19:20:15.140Z,8.43
2019-05-30T19:22:42.930Z,9.97
2019-05-30T19:25:10.657Z,9.60
2019-05-30T19:27:38.772Z,9.37
2019-05-30T19:30:07.308Z,9.23
2019-05-30T19:32:35.329Z,10.00
2019-05-30T19:35:04.199Z,9.70
2019-05-30T19:37:33.140Z,10.57
2019-05-30T19:40:01.189Z,10.83
2019-05-30T19:42:29.304Z,11.67
2019-05-30T19:44:57.086Z,10.97
2019-05-30T19:47:28.554Z,11.10
2019-05-30T19:49:55.011Z,11.87
2019-05-30T19:52:22.631Z,11.23
2019-05-30T19:54:50.211Z,10.23
2019-05-30T19:57:17.766Z,10.87
2019-05-30T19:59:45.430Z,10.10
2019-05-30T20:02:13.097Z,10.87
2019-05-30T20:04:40.672Z,10.93
2019-05-30T20:07:08.411Z,11.70
2019-05-30T20:09:36.652Z,11.03
2019-05-30T20:12:08.586Z,11.37
2019-05-30T20:14:35.016Z,10.10
2019-05-30T20:17:02.724Z,11.30
2019-05-30T20:19:31.679Z,14.27
2019-05-30T20:21:59.514Z,10.43
2019-05-30T20:24:26.993Z,10.20
2019-05-30T20:26:54.604Z,10.53
2019-05-30T20:29:22.289Z,11.00
2019-05-30T20:31:49.972Z,12.40
2019-05-30T20:34:17.666Z,11.27
2019-05-30T20:36:46.841Z,10.83
2019-05-30T20:39:14.620Z,12.40
2019-05-30T20:41:43.195Z,11.53
2019-05-30T20:44:11.342Z,9.57
2019-05-30T20:46:39.172Z,12.17
2019-05-30T20:49:07.253Z,11.07
2019-05-30T20:51:36.703Z,11.97
2019-05-30T20:54:04.857Z,12.87
2019-05-30T20:56:32.711Z,10.20
2019-05-30T20:59:00.335Z,11.80
2019-05-30T21:01:28.231Z,12.27
2019-05-30T21:03:55.878Z,10.97
2019-05-30T21:06:23.825Z,11.03
2019-05-30T21:08:51.620Z,11.13
2019-05-30T21:11:19.711Z,10.80
2019-05-30T21:13:48.937Z,11.10
2019-05-30T21:16:18.154Z,11.70
2019-05-30T21:18:46.179Z,11.67
2019-05-30T21:21:14.049Z,11.00
2019-05-30T21:23:42.429Z,13.17
2019-05-30T21:26:10.578Z,12.00
2019-05-30T21:28:38.710Z,10.67
2019-05-30T21:31:06.719Z,12.73
2019-05-30T21:33:34.469Z,12.27
2019-05-30T21:36:02.137Z,12.70
2019-05-30T21:38:29.910Z,11.63
2019-05-30T21:40:57.656Z,16.23
2019-05-30T21:43:25.576Z,13.37
2019-05-30T21:45:53.094Z,11.80
2019-05-30T21:48:20.767Z,11.83
2019-05-30T21:50:49.112Z,12.40
2019-05-30T21:53:17.933Z,11.53
2019-05-30T21:55:45.954Z,14.83
2019-05-30T21:58:13.702Z,14.23
2019-05-30T22:00:44.279Z,13.13
2019-05-30T22:03:12.211Z,12.53
2019-05-30T22:05:40.770Z,11.63
2019-05-30T22:08:08.606Z,13.23
2019-05-30T22:10:36.777Z,13.37
2019-05-30T22:13:09.540Z,10.67
2019-05-30T22:15:33.733Z,11.40
2019-05-30T22:18:01.511Z,9.87
2019-05-30T22:20:29.365Z,12.63
2019-05-30T22:22:56.863Z,11.87
2019-05-30T22:25:24.775Z,11.40
2019-05-30T22:27:52.608Z,11.90
2019-05-30T22:30:20.490Z,10.97
2019-05-30T22:32:48.719Z,11.10
2019-05-30T22:35:16.580Z,11.40
2019-05-30T22:37:44.815Z,10.23
2019-05-30T22:40:12.777Z,11.30
2019-05-30T22:42:40.375Z,11.20
2019-05-30T22:45:08.179Z,10.00
2019-05-30T22:47:36.312Z,12.17
2019-05-30T22:50:05.479Z,15.87
2019-05-30T22:52:33.271Z,9.93
2019-05-30T22:55:01.014Z,12.60
2019-05-30T22:57:28.801Z,10.90
2019-05-30T22:59:57.135Z,14.37
2019-05-30T23:02:24.960Z,10.60
2019-05-30T23:04:52.704Z,11.17
2019-05-30T23:07:20.306Z,11.27
2019-05-30T23:09:48.060Z,10.50
2019-05-30T23:12:15.575Z,10.90
2019-05-30T23:14:43.651Z,12.10
2019-05-30T23:17:11.573Z,11.03
2019-05-30T23:19:39.419Z,11.27
2019-05-30T23:22:07.248Z,11.70
2019-05-30T23:24:35.533Z,12.53
2019-05-30T23:27:03.411Z,12.10
2019-05-30T23:29:31.262Z,11.87
2019-05-30T23:31:58.727Z,12.70
2019-05-30T23:34:26.992Z,12.50
2019-05-30T23:36:54.866Z,12.97
2019-05-30T23:39:22.623Z,17.60
2019-05-30T23:41:51.038Z,13.73
2019-05-30T23:44:18.868Z,12.60
2019-05-30T23:46:46.369Z,13.13
2019-05-30T23:49:14.020Z,12.87
2019-05-30T23:51:41.922Z,13.07
2019-05-30T23:54:09.579Z,16.00
2019-05-30T23:56:37.378Z,13.33
2019-05-30T23:59:05.246Z,14.53
